createdAt,value
2023-04-08T00:00:55.981Z,99883.47
2023-04-08T00:03:22.652Z,99890.00
2023-04-08T00:05:49.278Z,99884.63
2023-04-08T00:08:15.932Z,99897.19
2023-04-08T00:10:42.481Z,99889.88
2023-04-08T00:13:09.052Z,99889.00
2023-04-08T00:15:37.191Z,99892.47
2023-04-08T00:18:04.026Z,99889.16
2023-04-08T00:20:30.661Z,99890.69
2023-04-08T00:22:57.201Z,99885.84
2023-04-08T00:25:25.375Z,99884.72
2023-04-08T00:27:52.403Z,99892.72
2023-04-08T00:30:19.486Z,99884.03
2023-04-08T00:32:46.353Z,99888.78
2023-04-08T00:35:12.998Z,99892.47
2023-04-08T00:37:39.539Z,99892.66
2023-04-08T00:40:06.684Z,99896.06
2023-04-08T00:42:33.312Z,99892.84
2023-04-08T00:44:59.855Z,99894.97
2023-04-08T00:47:26.608Z,99899.22
2023-04-08T00:49:53.356Z,99894.34
2023-04-08T00:52:19.899Z,99891.56
2023-04-08T00:54:46.649Z,99892.06
2023-04-08T00:57:13.363Z,99892.56
2023-04-08T00:59:41.023Z,99900.88
2023-04-08T01:02:16.693Z,99900.56
2023-04-08T01:04:43.345Z,99895.44
2023-04-08T01:07:45.356Z,99901.00
2023-04-08T01:10:19.948Z,99900.16
2023-04-08T01:12:56.153Z,99894.47
2023-04-08T01:15:24.682Z,99896.59
2023-04-08T01:17:54.688Z,99893.84
2023-04-08T01:20:22.611Z,99896.19
2023-04-08T01:23:01.335Z,99899.06
2023-04-08T01:25:32.840Z,99903.00
2023-04-08T01:28:01.940Z,99898.94
2023-04-08T01:30:30.666Z,99899.44
2023-04-08T01:32:58.446Z,99896.47
2023-04-08T01:35:25.447Z,99896.13
2023-04-08T01:37:53.678Z,99891.28
2023-04-08T01:40:20.513Z,99900.09
2023-04-08T01:42:52.930Z,99909.69
2023-04-08T01:45:20.733Z,99913.06
2023-04-08T01:47:49.388Z,99906.59
2023-04-08T01:50:16.928Z,99905.47
2023-04-08T01:52:45.199Z,99910.47
2023-04-08T01:55:12.213Z,99903.75
2023-04-08T01:57:40.926Z,99909.34
2023-04-08T02:00:13.522Z,99908.22
2023-04-08T02:02:43.360Z,99916.97
2023-04-08T02:05:10.083Z,99906.75
2023-04-08T02:07:36.709Z,99908.06
2023-04-08T02:10:04.228Z,99907.22
2023-04-08T02:12:31.324Z,99914.47
2023-04-08T02:14:57.987Z,99912.59
2023-04-08T02:17:49.978Z,99913.56
2023-04-08T02:20:19.315Z,99912.59
2023-04-08T02:23:23.040Z,99915.53
2023-04-08T02:25:50.644Z,99915.25
2023-04-08T02:28:19.738Z,99913.88
2023-04-08T02:30:51.391Z,99918.41
2023-04-08T02:33:22.806Z,99914.91
2023-04-08T02:35:51.631Z,99919.00
2023-04-08T02:38:18.376Z,99915.25
2023-04-08T02:40:44.893Z,99916.31
2023-04-08T02:43:11.435Z,99920.88
2023-04-08T02:45:42.915Z,99922.16
2023-04-08T02:48:10.272Z,99917.03
2023-04-08T02:50:37.110Z,99921.00
2023-04-08T02:53:04.193Z,99923.13
2023-04-08T02:55:31.003Z,99924.19
2023-04-08T02:57:57.553Z,99921.97
2023-04-08T03:00:24.106Z,99921.97
2023-04-08T03:02:50.844Z,99921.97
2023-04-08T03:05:17.691Z,99917.66
2023-04-08T03:07:44.331Z,99924.06
2023-04-08T03:10:11.165Z,99931.03
2023-04-08T03:12:37.801Z,99931.50
2023-04-08T03:15:04.649Z,99919.69
2023-04-08T03:17:33.947Z,99922.28
2023-04-08T03:20:05.190Z,99923.56
2023-04-08T03:22:31.949Z,99924.84
2023-04-08T03:24:58.560Z,99931.00
2023-04-08T03:27:25.537Z,99930.22
2023-04-08T03:29:53.150Z,99933.38
2023-04-08T03:32:20.076Z,99927.66
2023-04-08T03:34:46.673Z,99927.66
2023-04-08T03:37:13.244Z,99929.50
2023-04-08T03:39:39.782Z,99936.97
2023-04-08T03:42:06.345Z,99936.16
2023-04-08T03:44:32.923Z,99938.03
2023-04-08T03:46:59.459Z,99949.28
2023-04-08T03:49:25.998Z,99949.28
2023-04-08T03:51:52.526Z,99941.03
2023-04-08T03:54:19.085Z,99934.88
2023-04-08T03:56:45.676Z,99943.47
2023-04-08T03:59:12.212Z,99946.72
2023-04-08T04:01:40.589Z,99930.69
2023-04-08T04:04:08.618Z,99938.09
2023-04-08T04:06:35.328Z,99941.03
2023-04-08T04:09:01.863Z,99938.59
2023-04-08T04:11:28.419Z,99938.59
2023-04-08T04:13:54.960Z,99938.59
2023-04-08T04:16:21.697Z,99941.25
2023-04-08T04:18:48.591Z,99947.66
2023-04-08T04:21:15.325Z,99946.88
2023-04-08T04:23:41.823Z,99941.19
2023-04-08T04:26:10.101Z,99951.88
2023-04-08T04:28:37.150Z,99946.53
2023-04-08T04:31:04.116Z,99954.53
2023-04-08T04:33:31.357Z,99949.41
2023-04-08T04:35:58.022Z,99954.75
2023-04-08T04:38:24.720Z,99953.97
2023-04-08T04:40:51.276Z,99959.31
2023-04-08T04:43:17.807Z,99960.94
2023-04-08T04:45:45.167Z,99965.00
2023-04-08T04:48:11.850Z,99955.13
2023-04-08T04:50:38.374Z,99969.53
2023-04-08T04:53:04.988Z,99964.75
2023-04-08T04:55:31.560Z,99974.13
2023-04-08T04:57:58.067Z,99965.41
2023-04-08T05:00:24.632Z,99959.72
2023-04-08T05:02:51.723Z,99957.22
2023-04-08T05:05:18.585Z,99961.31
2023-04-08T05:07:45.146Z,99962.50
2023-04-08T05:10:11.759Z,99967.03
2023-04-08T05:12:38.898Z,99972.13
2023-04-08T05:15:06.715Z,99969.84
2023-04-08T05:17:33.343Z,99980.09
2023-04-08T05:19:59.911Z,99978.00
2023-04-08T05:22:26.504Z,99978.34
2023-04-08T05:24:53.013Z,99985.59
2023-04-08T05:27:19.681Z,99986.66
2023-04-08T05:29:46.221Z,99980.13
2023-04-08T05:32:12.882Z,99976.72
2023-04-08T05:34:39.472Z,99994.56
2023-04-08T05:37:06.055Z,99995.00
2023-04-08T05:39:32.577Z,99989.06
2023-04-08T05:41:59.115Z,99990.50
2023-04-08T05:44:25.729Z,99989.22
2023-04-08T05:46:52.450Z,99986.19
2023-04-08T05:49:19.237Z,99996.59
2023-04-08T05:51:45.820Z,99990.09
2023-04-08T05:54:12.392Z,99998.75
2023-04-08T05:56:38.928Z,99994.22
2023-04-08T05:59:05.522Z,99998.63
2023-04-08T06:01:32.190Z,100001.22
2023-04-08T06:03:58.964Z,100006.03
2023-04-08T06:06:26.090Z,100009.75
2023-04-08T06:08:52.976Z,100008.69
2023-04-08T06:11:19.641Z,100006.81
2023-04-08T06:13:46.238Z,100006.03
2023-04-08T06:16:13.824Z,100011.13
2023-04-08T06:18:41.038Z,100010.88
2023-04-08T06:21:07.788Z,100013.06
2023-04-08T06:23:34.406Z,100004.31
2023-04-08T06:26:00.958Z,100011.09
2023-04-08T06:28:29.545Z,100009.63
2023-04-08T06:30:56.213Z,100014.06
2023-04-08T06:33:22.863Z,100017.72
2023-04-08T06:35:49.420Z,100021.44
2023-04-08T06:38:16.295Z,100019.44
2023-04-08T06:40:42.840Z,100026.06
2023-04-08T06:43:09.390Z,100031.06
2023-04-08T06:45:36.099Z,100022.47
2023-04-08T06:48:02.781Z,100016.19
2023-04-08T06:50:29.379Z,100024.13
2023-04-08T06:52:55.925Z,100020.22
2023-04-08T06:55:22.466Z,100024.91
2023-04-08T06:57:48.979Z,100022.88
2023-04-08T07:00:15.848Z,100022.41
2023-04-08T07:02:42.586Z,100023.09
2023-04-08T07:05:09.599Z,100026.91
2023-04-08T07:07:36.465Z,100027.47
2023-04-08T07:10:03.060Z,100034.53
2023-04-08T07:12:29.693Z,100029.19
2023-04-08T07:14:56.253Z,100033.50
2023-04-08T07:17:22.809Z,100036.22
2023-04-08T07:19:49.662Z,100035.72
2023-04-08T07:22:16.423Z,100033.06
2023-04-08T07:24:45.719Z,100040.84
2023-04-08T07:27:12.266Z,100037.38
2023-04-08T07:29:39.952Z,100039.28
2023-04-08T07:32:07.183Z,100038.75
2023-04-08T07:34:36.986Z,100040.91
2023-04-08T07:37:03.615Z,100044.16
2023-04-08T07:39:30.595Z,100043.88
2023-04-08T07:41:57.309Z,100041.78
2023-04-08T07:44:23.917Z,100051.50
2023-04-08T07:46:51.887Z,100047.19
2023-04-08T07:49:18.662Z,100049.09
2023-04-08T07:51:45.294Z,100056.13
2023-04-08T07:54:12.644Z,100051.03
2023-04-08T07:56:40.443Z,100056.97
2023-04-08T07:59:07.162Z,100051.59
2023-04-08T08:01:35.811Z,100057.56
2023-04-08T08:04:03.523Z,100060.03
2023-04-08T08:06:32.518Z,100066.25
2023-04-08T08:08:59.790Z,100063.84
2023-04-08T08:11:29.415Z,100063.03
2023-04-08T08:13:56.001Z,100067.91
2023-04-08T08:16:22.958Z,100063.34
2023-04-08T08:18:49.543Z,100070.13
2023-04-08T08:21:16.160Z,100069.59
2023-04-08T08:23:42.765Z,100066.31
2023-04-08T08:26:10.562Z,100071.19
2023-04-08T08:28:38.032Z,100082.50
2023-04-08T08:31:06.110Z,100074.38
2023-04-08T08:33:33.413Z,100082.19
2023-04-08T08:36:00.293Z,100072.16
2023-04-08T08:38:27.227Z,100071.03
2023-04-08T08:40:58.089Z,100079.13
2023-04-08T08:43:25.108Z,100076.09
2023-04-08T08:45:51.842Z,100070.34
2023-04-08T08:48:18.614Z,100082.22
2023-04-08T08:50:45.788Z,100084.53
2023-04-08T08:53:12.927Z,100083.06
2023-04-08T08:56:05.674Z,100082.44
2023-04-08T08:58:29.580Z,100083.91
2023-04-08T09:00:56.191Z,100078.34
2023-04-08T09:03:30.231Z,100080.53
2023-04-08T09:06:01.716Z,100080.94
2023-04-08T09:08:33.166Z,100078.16
2023-04-08T09:11:13.131Z,100074.34
2023-04-08T09:13:40.465Z,100074.22
2023-04-08T09:16:09.329Z,100083.91
2023-04-08T09:18:39.289Z,100078.03
2023-04-08T09:21:07.251Z,100081.38
2023-04-08T09:23:41.499Z,100082.03
2023-04-08T09:26:16.341Z,100078.69
2023-04-08T09:28:45.178Z,100076.13
2023-04-08T09:31:23.125Z,100081.16
2023-04-08T09:33:51.581Z,100081.09
2023-04-08T09:36:19.060Z,100075.09
2023-04-08T09:38:46.894Z,100084.03
2023-04-08T09:41:18.245Z,100081.19
2023-04-08T09:43:51.799Z,100079.00
2023-04-08T09:46:25.913Z,100079.59
2023-04-08T09:49:08.707Z,100088.22
2023-04-08T09:52:03.319Z,100077.06
2023-04-08T09:54:57.969Z,100083.50
2023-04-08T09:57:58.560Z,100078.66
2023-04-08T10:00:51.486Z,100082.34
2023-04-08T10:03:27.935Z,100085.16
2023-04-08T10:05:56.660Z,100090.63
2023-04-08T10:08:27.097Z,100081.09
2023-04-08T10:10:55.121Z,100078.38
2023-04-08T10:13:22.732Z,100090.66
2023-04-08T10:15:49.318Z,100085.41
2023-04-08T10:18:18.605Z,100090.97
2023-04-08T10:20:49.289Z,100086.38
2023-04-08T10:23:17.849Z,100088.72
2023-04-08T10:25:46.001Z,100080.31
2023-04-08T10:28:16.236Z,100076.91
2023-04-08T10:30:47.298Z,100083.25
2023-04-08T10:33:20.552Z,100086.41
2023-04-08T10:35:54.207Z,100086.22
2023-04-08T10:38:21.017Z,100085.25
2023-04-08T10:40:49.061Z,100073.63
2023-04-08T10:43:16.163Z,100083.34
2023-04-08T10:45:45.760Z,100079.75
2023-04-08T10:48:13.739Z,100072.00
2023-04-08T10:50:41.033Z,100073.88
2023-04-08T10:53:08.644Z,100065.50
2023-04-08T10:55:35.519Z,100074.78
2023-04-08T10:58:12.774Z,100078.19
2023-04-08T11:00:40.283Z,100077.25
2023-04-08T11:03:09.439Z,100076.25
2023-04-08T11:05:37.375Z,100078.06
2023-04-08T11:08:04.930Z,100073.91
2023-04-08T11:10:36.660Z,100076.81
2023-04-08T11:13:03.620Z,100067.31
2023-04-08T11:15:31.226Z,100065.56
2023-04-08T11:17:58.126Z,100072.03
2023-04-08T11:20:25.476Z,100070.56
2023-04-08T11:22:52.161Z,100060.59
2023-04-08T11:25:18.852Z,100067.28
2023-04-08T11:27:45.491Z,100072.50
2023-04-08T11:30:12.495Z,100063.09
2023-04-08T11:32:39.983Z,100064.69
2023-04-08T11:35:07.523Z,100061.06
2023-04-08T11:37:41.408Z,100061.75
2023-04-08T11:40:09.759Z,100052.88
2023-04-08T11:42:36.367Z,100054.13
2023-04-08T11:45:11.120Z,100049.81
2023-04-08T11:47:38.118Z,100041.44
2023-04-08T11:50:05.477Z,100042.03
2023-04-08T11:53:01.422Z,100045.88
2023-04-08T11:55:31.503Z,100046.88
2023-04-08T11:58:03.393Z,100045.47
2023-04-08T12:00:29.960Z,100040.81
2023-04-08T12:02:56.657Z,100041.41
2023-04-08T12:05:23.317Z,100038.59
2023-04-08T12:07:49.947Z,100030.66
2023-04-08T12:10:16.594Z,100022.59
2023-04-08T12:12:43.122Z,100024.81
2023-04-08T12:15:10.810Z,100030.47
2023-04-08T12:17:38.913Z,100022.00
2023-04-08T12:20:06.927Z,100022.25
2023-04-08T12:22:33.809Z,100015.41
2023-04-08T12:25:00.639Z,100023.44
2023-04-08T12:27:27.173Z,100020.06
2023-04-08T12:29:53.686Z,100016.22
2023-04-08T12:32:20.573Z,100009.72
2023-04-08T12:34:47.512Z,100004.72
2023-04-08T12:37:14.011Z,100011.03
2023-04-08T12:39:40.595Z,100008.72
2023-04-08T12:42:07.183Z,100000.97
2023-04-08T12:44:33.748Z,99995.94
2023-04-08T12:47:00.447Z,100001.56
2023-04-08T12:49:28.049Z,99997.53
2023-04-08T12:51:55.224Z,99993.63
2023-04-08T12:54:21.812Z,99994.09
2023-04-08T12:56:48.893Z,99994.28
2023-04-08T12:59:16.037Z,99987.25
2023-04-08T13:01:42.980Z,99985.75
2023-04-08T13:04:09.647Z,99994.56
2023-04-08T13:06:36.273Z,99992.25
2023-04-08T13:09:02.825Z,99987.97
2023-04-08T13:11:29.408Z,99991.09
2023-04-08T13:13:56.192Z,99984.28
2023-04-08T13:16:22.909Z,99975.56
2023-04-08T13:18:49.805Z,99970.53
2023-04-08T13:21:16.662Z,99973.53
2023-04-08T13:23:43.186Z,99974.84
2023-04-08T13:26:09.817Z,99963.84
2023-04-08T13:28:49.714Z,99963.56
2023-04-08T13:31:20.703Z,99972.41
2023-04-08T13:33:47.363Z,99963.28
2023-04-08T13:36:13.932Z,99955.06
2023-04-08T13:38:40.953Z,99960.06
2023-04-08T13:41:07.542Z,99955.72
2023-04-08T13:43:34.129Z,99958.53
2023-04-08T13:46:00.659Z,99950.06
2023-04-08T13:48:27.217Z,99947.22
2023-04-08T13:50:53.756Z,99957.22
2023-04-08T13:53:20.267Z,99953.19
2023-04-08T13:55:46.931Z,99957.13
2023-04-08T13:58:22.915Z,99966.09
2023-04-08T14:00:51.861Z,99951.63
2023-04-08T14:03:19.318Z,99960.97
2023-04-08T14:05:46.117Z,99952.28
2023-04-08T14:08:13.745Z,99950.03
2023-04-08T14:10:42.065Z,99955.50
2023-04-08T14:13:09.400Z,99952.63
2023-04-08T14:15:36.296Z,99951.19
2023-04-08T14:18:02.979Z,99954.88
2023-04-08T14:20:30.038Z,99952.81
2023-04-08T14:22:56.931Z,99955.53
2023-04-08T14:25:24.013Z,99951.94
2023-04-08T14:27:57.826Z,99944.56
2023-04-08T14:30:25.772Z,99956.13
2023-04-08T14:32:52.763Z,99942.66
2023-04-08T14:35:19.341Z,99941.88
2023-04-08T14:37:45.944Z,99948.00
2023-04-08T14:40:12.738Z,99939.16
2023-04-08T14:42:39.284Z,99937.09
2023-04-08T14:45:06.288Z,99952.50
2023-04-08T14:47:32.904Z,99946.25
2023-04-08T14:49:59.545Z,99952.91
2023-04-08T14:52:26.228Z,99938.13
2023-04-08T14:54:53.772Z,99933.28
2023-04-08T14:58:21.186Z,99929.94
2023-04-08T15:00:47.869Z,99909.72
2023-04-08T15:03:14.944Z,99908.41
2023-04-08T15:05:42.808Z,99913.28
2023-04-08T15:08:09.376Z,99916.56
2023-04-08T15:10:36.006Z,99910.13
2023-04-08T15:13:02.925Z,99911.91
2023-04-08T15:15:29.554Z,99909.84
2023-04-08T15:17:56.182Z,99903.91
2023-04-08T15:20:22.813Z,99908.66
2023-04-08T15:22:49.471Z,99915.53
2023-04-08T15:25:16.211Z,99927.66
2023-04-08T15:27:43.248Z,99922.09
2023-04-08T15:30:12.374Z,99933.28
2023-04-08T15:32:39.178Z,99932.25
2023-04-08T15:35:06.764Z,99934.09
2023-04-08T15:37:33.542Z,99942.06
2023-04-08T15:40:00.369Z,99938.41
2023-04-08T15:42:27.197Z,99939.72
2023-04-08T15:44:53.752Z,99953.16
2023-04-08T15:47:20.340Z,99950.53
2023-04-08T15:49:48.804Z,99944.31
2023-04-08T15:52:15.490Z,99941.59
2023-04-08T15:54:41.995Z,99950.91
2023-04-08T15:57:08.744Z,99954.44
2023-04-08T15:59:35.903Z,99960.22
2023-04-08T16:02:02.541Z,99956.69
2023-04-08T16:04:29.768Z,99955.50
2023-04-08T16:06:56.424Z,99960.00
2023-04-08T16:09:26.636Z,99971.34
2023-04-08T16:11:53.688Z,99966.38
2023-04-08T16:14:20.211Z,99973.78
2023-04-08T16:16:47.247Z,99979.84
2023-04-08T16:19:14.340Z,99966.53
2023-04-08T16:21:40.864Z,99979.50
2023-04-08T16:24:07.621Z,99968.91
2023-04-08T16:26:34.326Z,99973.03
2023-04-08T16:29:00.984Z,99977.50
2023-04-08T16:31:27.625Z,99985.69
2023-04-08T16:33:54.517Z,99976.06
2023-04-08T16:36:21.477Z,99980.34
2023-04-08T16:38:48.010Z,99980.34
2023-04-08T16:41:14.538Z,99980.66
2023-04-08T16:43:41.500Z,99989.88
2023-04-08T16:46:17.597Z,99988.88
2023-04-08T16:48:45.033Z,99995.31
2023-04-08T16:51:11.737Z,99988.81
2023-04-08T16:53:38.286Z,99988.16
2023-04-08T16:56:05.703Z,99997.28
2023-04-08T16:58:32.524Z,100001.88
2023-04-08T17:00:59.088Z,99997.56
2023-04-08T17:03:27.495Z,99994.44
2023-04-08T17:05:54.162Z,99997.28
2023-04-08T17:08:21.422Z,99990.38
2023-04-08T17:10:49.659Z,100004.72
2023-04-08T17:13:16.451Z,99999.09
2023-04-08T17:15:43.126Z,100002.75
2023-04-08T17:18:09.693Z,100000.75
2023-04-08T17:20:36.290Z,100003.72
2023-04-08T17:23:02.976Z,100004.75
2023-04-08T17:25:29.536Z,100011.69
2023-04-08T17:27:56.702Z,100004.16
2023-04-08T17:30:23.323Z,100002.06
2023-04-08T17:32:49.944Z,100010.34
2023-04-08T17:35:17.302Z,100010.44
2023-04-08T17:37:43.826Z,100006.41
2023-04-08T17:40:10.492Z,100011.66
2023-04-08T17:42:37.036Z,100010.13
2023-04-08T17:45:04.857Z,100013.44
2023-04-08T17:47:31.550Z,100012.44
2023-04-08T17:49:58.095Z,100011.47
2023-04-08T17:52:24.674Z,100017.78
2023-04-08T17:54:51.191Z,100011.66
2023-04-08T17:57:17.773Z,100021.53
2023-04-08T17:59:44.372Z,100012.38
2023-04-08T18:02:11.094Z,100018.91
2023-04-08T18:04:38.233Z,100016.28
2023-04-08T18:07:05.394Z,100021.31
2023-04-08T18:09:32.032Z,100023.53
2023-04-08T18:11:58.689Z,100025.53
2023-04-08T18:14:25.301Z,100032.97
2023-04-08T18:16:51.854Z,100028.16
2023-04-08T18:19:18.847Z,100030.94
2023-04-08T18:21:45.463Z,100037.28
2023-04-08T18:24:11.969Z,100031.94
2023-04-08T18:26:38.527Z,100035.25
2023-04-08T18:29:05.038Z,100040.47
2023-04-08T18:31:31.547Z,100045.41
2023-04-08T18:33:58.158Z,100050.84
2023-04-08T18:36:24.734Z,100045.97
2023-04-08T18:38:51.355Z,100049.09
2023-04-08T18:41:18.723Z,100056.44
2023-04-08T18:43:45.371Z,100053.81
2023-04-08T18:46:11.936Z,100064.06
2023-04-08T18:48:38.502Z,100064.66
2023-04-08T18:51:05.036Z,100060.44
2023-04-08T18:53:31.779Z,100066.72
2023-04-08T18:55:58.428Z,100074.63
2023-04-08T18:58:25.077Z,100072.00
2023-04-08T19:00:51.592Z,100083.44
2023-04-08T19:03:18.249Z,100078.88
2023-04-08T19:05:44.844Z,100081.38
2023-04-08T19:08:11.472Z,100076.53
2023-04-08T19:10:38.529Z,100084.75
2023-04-08T19:13:05.301Z,100084.31
2023-04-08T19:15:31.957Z,100087.13
2023-04-08T19:17:59.134Z,100089.88
2023-04-08T19:20:27.234Z,100087.25
2023-04-08T19:22:53.868Z,100098.97
2023-04-08T19:25:20.552Z,100096.63
2023-04-08T19:27:47.747Z,100098.28
2023-04-08T19:30:14.500Z,100096.22
2023-04-08T19:32:41.157Z,100101.72
2023-04-08T19:35:11.218Z,100106.91
2023-04-08T19:37:37.777Z,100112.91
2023-04-08T19:40:04.785Z,100109.69
2023-04-08T19:42:31.315Z,100115.94
2023-04-08T19:44:57.818Z,100114.59
2023-04-08T19:47:24.368Z,100114.88
2023-04-08T19:49:51.095Z,100115.38
2023-04-08T19:52:17.614Z,100117.00
2023-04-08T19:54:44.228Z,100125.13
2023-04-08T19:57:11.025Z,100126.53
2023-04-08T19:59:38.190Z,100127.91
2023-04-08T20:02:05.075Z,100130.09
2023-04-08T20:04:32.210Z,100131.50
2023-04-08T20:07:02.490Z,100118.81
2023-04-08T20:09:32.686Z,100135.13
2023-04-08T20:12:06.424Z,100131.34
2023-04-08T20:14:35.821Z,100134.34
2023-04-08T20:17:02.739Z,100137.34
2023-04-08T20:19:29.354Z,100135.72
2023-04-08T20:21:57.375Z,100129.78
2023-04-08T20:24:23.986Z,100133.59
2023-04-08T20:26:50.531Z,100137.69
2023-04-08T20:29:17.152Z,100137.19
2023-04-08T20:31:44.884Z,100136.13
2023-04-08T20:34:11.566Z,100129.69
2023-04-08T20:36:38.781Z,100129.75
2023-04-08T20:39:05.592Z,100132.19
2023-04-08T20:41:32.123Z,100131.16
2023-04-08T20:43:58.678Z,100128.44
2023-04-08T20:46:25.205Z,100133.63
2023-04-08T20:48:52.101Z,100129.88
2023-04-08T20:51:19.187Z,100131.81
2023-04-08T20:53:45.745Z,100133.75
2023-04-08T20:56:12.282Z,100131.91
2023-04-08T20:58:38.847Z,100149.25
2023-04-08T21:01:05.994Z,100140.13
2023-04-08T21:03:32.822Z,100138.81
2023-04-08T21:05:59.440Z,100133.72
2023-04-08T21:08:26.097Z,100139.69
2023-04-08T21:10:54.284Z,100129.44
2023-04-08T21:13:21.143Z,100137.03
2023-04-08T21:15:47.676Z,100133.28
2023-04-08T21:18:14.218Z,100136.56
2023-04-08T21:20:41.114Z,100129.28
2023-04-08T21:23:07.810Z,100135.50
2023-04-08T21:25:34.494Z,100126.63
2023-04-08T21:28:01.120Z,100131.25
2023-04-08T21:30:27.770Z,100135.63
2023-04-08T21:32:54.919Z,100138.31
2023-04-08T21:35:21.641Z,100137.25
2023-04-08T21:37:48.242Z,100138.13
2023-04-08T21:40:14.853Z,100133.00
2023-04-08T21:42:41.951Z,100140.56
2023-04-08T21:45:09.192Z,100134.09
2023-04-08T21:47:35.803Z,100136.81
2023-04-08T21:50:02.402Z,100134.16
2023-04-08T21:52:29.642Z,100134.69
2023-04-08T21:54:56.132Z,100131.47
2023-04-08T21:57:22.809Z,100140.66
2023-04-08T21:59:49.421Z,100140.09
2023-04-08T22:02:16.387Z,100141.75
2023-04-08T22:04:43.112Z,100132.56
2023-04-08T22:07:09.656Z,100144.19
2023-04-08T22:09:36.457Z,100145.00
2023-04-08T22:12:03.305Z,100140.97
2023-04-08T22:14:29.992Z,100135.31
2023-04-08T22:16:56.675Z,100137.47
2023-04-08T22:19:23.433Z,100138.84
2023-04-08T22:21:51.205Z,100138.00
2023-04-08T22:24:19.064Z,100133.69
2023-04-08T22:26:45.661Z,100136.38
2023-04-08T22:29:12.248Z,100135.84
2023-04-08T22:31:38.830Z,100137.47
2023-04-08T22:34:05.571Z,100138.84
2023-04-08T22:36:32.129Z,100137.50
2023-04-08T22:38:58.685Z,100135.34
2023-04-08T22:41:25.625Z,100138.59
2023-04-08T22:43:52.110Z,100142.38
2023-04-08T22:46:20.061Z,100132.13
2023-04-08T22:48:47.701Z,100133.47
2023-04-08T22:51:14.308Z,100131.56
2023-04-08T22:53:41.113Z,100140.75
2023-04-08T22:56:07.754Z,100139.38
2023-04-08T22:58:34.481Z,100138.59
2023-04-08T23:01:02.422Z,100130.19
2023-04-08T23:03:29.006Z,100144.00
2023-04-08T23:05:55.534Z,100141.28
2023-04-08T23:08:22.128Z,100139.16
2023-04-08T23:10:48.768Z,100135.91
2023-04-08T23:13:15.430Z,100132.13
2023-04-08T23:15:41.985Z,100128.34
2023-04-08T23:18:08.616Z,100129.97
2023-04-08T23:20:35.855Z,100128.88
2023-04-08T23:23:03.571Z,100129.97
2023-04-08T23:25:30.309Z,100127.81
2023-04-08T23:27:56.839Z,100129.69
2023-04-08T23:30:23.427Z,100128.34
2023-04-08T23:32:50.079Z,100126.47
2023-04-08T23:35:16.669Z,100130.00
2023-04-08T23:37:43.396Z,100130.25
2023-04-08T23:40:10.235Z,100135.38
2023-04-08T23:42:36.860Z,100131.34
2023-04-08T23:45:03.841Z,100127.28
2023-04-08T23:47:31.241Z,100122.44
2023-04-08T23:49:57.853Z,100132.97
2023-04-08T23:52:24.360Z,100126.50
2023-04-08T23:54:50.933Z,100122.97
2023-04-08T23:57:17.575Z,100128.38
2023-04-08T23:59:44.154Z,100125.16
